NDF270 EFHK-ULLI
Flight info
| Callsign | NDF270 |
|---|---|
| Flight time | 0h 49m |
| Altitude | 31000 |
| Route | ARVEP5C ARVEP T82 RATMU DCT OLEMA L24 AKARU/K0839F310 AKARU1B |
| Aircraft | A20N/M-SDE2E3FGHIRWXY/LB1 |
Departure
| Time | 2026-04-23 19:44 |
|---|---|
| Airport | Helsinki Vantaa Airport (EFHK) |
Arrival
| Time | 2026-04-23 20:34 |
|---|---|
| Airport | Pulkovo Airport (ULLI) |
| Time | Latitude | Longitude | Altitude | Speed | Heading |
|---|---|---|---|---|---|
| 2026-04-23 19:14 | 60.31872 | 24.96531 | 168 ft | 0 kts | 135° |
| 2026-04-23 19:33 | 60.31896 | 24.96493 | 163 ft | 4 kts | 161° |
| 2026-04-23 19:34 | 60.31921 | 24.96487 | 167 ft | 4 kts | 198° |
| 2026-04-23 19:34 | 60.31941 | 24.96511 | 167 ft | 2 kts | 227° |
| 2026-04-23 19:34 | 60.31942 | 24.96512 | 167 ft | 1 kts | 227° |
| 2026-04-23 19:37 | 60.31939 | 24.96506 | 167 ft | 2 kts | 227° |
| 2026-04-23 19:37 | 60.31916 | 24.96454 | 167 ft | 8 kts | 227° |
| 2026-04-23 19:37 | 60.31868 | 24.96351 | 166 ft | 12 kts | 227° |
| 2026-04-23 19:38 | 60.31861 | 24.96168 | 164 ft | 16 kts | 295° |
| 2026-04-23 19:38 | 60.31928 | 24.96015 | 162 ft | 12 kts | 295° |
| 2026-04-23 19:38 | 60.31890 | 24.95870 | 161 ft | 14 kts | 226° |
| 2026-04-23 19:38 | 60.31813 | 24.95706 | 160 ft | 18 kts | 226° |
| 2026-04-23 19:39 | 60.31722 | 24.95504 | 159 ft | 21 kts | 228° |
| 2026-04-23 19:39 | 60.31616 | 24.95272 | 157 ft | 24 kts | 227° |
| 2026-04-23 19:39 | 60.31499 | 24.95013 | 156 ft | 26 kts | 227° |
| 2026-04-23 19:39 | 60.31371 | 24.94731 | 154 ft | 28 kts | 227° |
| 2026-04-23 19:40 | 60.31233 | 24.94427 | 152 ft | 30 kts | 227° |
| 2026-04-23 19:40 | 60.31094 | 24.94121 | 150 ft | 25 kts | 228° |
| 2026-04-23 19:40 | 60.31029 | 24.93927 | 149 ft | 12 kts | 266° |
| 2026-04-23 19:40 | 60.31040 | 24.93860 | 149 ft | 0 kts | 298° |
| 2026-04-23 19:42 | 60.31047 | 24.93834 | 148 ft | 4 kts | 298° |
| 2026-04-23 19:42 | 60.31075 | 24.93759 | 148 ft | 9 kts | 322° |
| 2026-04-23 19:42 | 60.31156 | 24.93732 | 146 ft | 15 kts | 15° |
| 2026-04-23 19:42 | 60.31201 | 24.93793 | 148 ft | 0 kts | 47° |
| 2026-04-23 19:43 | 60.31276 | 24.93954 | 150 ft | 45 kts | 47° |
| 2026-04-23 19:43 | 60.31647 | 24.94768 | 155 ft | 109 kts | 47° |
| 2026-04-23 19:44 | 60.32279 | 24.96154 | 198 ft | 154 kts | 46° |
| 2026-04-23 19:44 | 60.32949 | 24.97656 | 672 ft | 129 kts | 44° |
| 2026-04-23 19:44 | 60.33585 | 24.99000 | 715 ft | 144 kts | 43° |
| 2026-04-23 19:44 | 60.34311 | 25.00564 | 1132 ft | 156 kts | 45° |
| 2026-04-23 19:45 | 60.35008 | 25.02190 | 1802 ft | 152 kts | 46° |
| 2026-04-23 19:45 | 60.35700 | 25.03871 | 2343 ft | 159 kts | 46° |
| 2026-04-23 19:45 | 60.36403 | 25.05635 | 2866 ft | 162 kts | 46° |
| 2026-04-23 19:45 | 60.37133 | 25.07433 | 3319 ft | 169 kts | 45° |
| 2026-04-23 19:46 | 60.37903 | 25.09289 | 3742 ft | 176 kts | 45° |
| 2026-04-23 19:46 | 60.38703 | 25.11263 | 4055 ft | 190 kts | 51° |
| 2026-04-23 19:46 | 60.39256 | 25.13821 | 4263 ft | 213 kts | 76° |
| 2026-04-23 19:46 | 60.39139 | 25.16950 | 4511 ft | 237 kts | 105° |
| 2026-04-23 19:47 | 60.38415 | 25.20078 | 4762 ft | 256 kts | 116° |
| 2026-04-23 19:47 | 60.37515 | 25.23335 | 4981 ft | 272 kts | 116° |
| 2026-04-23 19:47 | 60.36608 | 25.26725 | 5298 ft | 280 kts | 112° |
| 2026-04-23 19:47 | 60.36051 | 25.30363 | 6055 ft | 268 kts | 95° |
| 2026-04-23 19:48 | 60.35970 | 25.34130 | 6444 ft | 271 kts | 84° |
| 2026-04-23 19:48 | 60.36033 | 25.37987 | 6769 ft | 278 kts | 85° |
| 2026-04-23 19:48 | 60.36013 | 25.41926 | 7132 ft | 283 kts | 88° |
| 2026-04-23 19:48 | 60.35907 | 25.45915 | 7513 ft | 287 kts | 90° |
| 2026-04-23 19:49 | 60.35696 | 25.49925 | 8026 ft | 285 kts | 93° |
| 2026-04-23 19:49 | 60.35383 | 25.53886 | 8453 ft | 287 kts | 95° |
| 2026-04-23 19:49 | 60.35018 | 25.57881 | 8765 ft | 291 kts | 95° |
| 2026-04-23 19:49 | 60.34663 | 25.61924 | 9088 ft | 293 kts | 94° |
| 2026-04-23 19:50 | 60.34364 | 25.66005 | 9436 ft | 294 kts | 92° |
| 2026-04-23 19:50 | 60.34130 | 25.70115 | 9784 ft | 294 kts | 89° |
| 2026-04-23 19:50 | 60.33986 | 25.74249 | 9977 ft | 298 kts | 87° |
| 2026-04-23 19:50 | 60.33845 | 25.78504 | 10054 ft | 307 kts | 88° |
| 2026-04-23 19:51 | 60.33666 | 25.82798 | 10124 ft | 315 kts | 89° |
| 2026-04-23 19:51 | 60.33444 | 25.87255 | 10190 ft | 323 kts | 90° |
| 2026-04-23 19:51 | 60.33194 | 25.91801 | 10248 ft | 329 kts | 90° |
| 2026-04-23 19:51 | 60.32929 | 25.96429 | 10303 ft | 335 kts | 91° |
| 2026-04-23 19:52 | 60.32655 | 26.01137 | 10355 ft | 340 kts | 91° |
| 2026-04-23 19:52 | 60.32376 | 26.05883 | 10468 ft | 342 kts | 91° |
| 2026-04-23 19:52 | 60.32093 | 26.10665 | 10608 ft | 343 kts | 91° |
| 2026-04-23 19:52 | 60.31809 | 26.15450 | 10735 ft | 344 kts | 91° |
| 2026-04-23 19:53 | 60.31528 | 26.20203 | 11085 ft | 336 kts | 90° |
| 2026-04-23 19:53 | 60.31257 | 26.24892 | 11351 ft | 341 kts | 90° |
| 2026-04-23 19:53 | 60.30969 | 26.29746 | 11939 ft | 352 kts | 90° |
| 2026-04-23 19:53 | 60.30666 | 26.34666 | 12895 ft | 356 kts | 90° |
| 2026-04-23 19:54 | 60.30356 | 26.39671 | 13798 ft | 362 kts | 89° |
| 2026-04-23 19:54 | 60.30041 | 26.44746 | 14606 ft | 367 kts | 89° |
| 2026-04-23 19:54 | 60.29722 | 26.49877 | 15391 ft | 372 kts | 88° |
| 2026-04-23 19:54 | 60.29403 | 26.55015 | 16161 ft | 377 kts | 88° |
| 2026-04-23 19:55 | 60.29073 | 26.60281 | 16930 ft | 382 kts | 88° |
| 2026-04-23 19:55 | 60.28737 | 26.65626 | 17688 ft | 387 kts | 88° |
| 2026-04-23 19:55 | 60.28395 | 26.71036 | 18402 ft | 392 kts | 87° |
| 2026-04-23 19:55 | 60.28046 | 26.76505 | 19087 ft | 395 kts | 87° |
| 2026-04-23 19:56 | 60.27692 | 26.82027 | 19771 ft | 399 kts | 86° |
| 2026-04-23 19:56 | 60.27333 | 26.87583 | 20432 ft | 403 kts | 86° |
| 2026-04-23 19:56 | 60.26968 | 26.93218 | 21098 ft | 407 kts | 86° |
| 2026-04-23 19:56 | 60.26597 | 26.98885 | 21753 ft | 411 kts | 86° |
| 2026-04-23 19:57 | 60.26221 | 27.04611 | 22407 ft | 414 kts | 86° |
| 2026-04-23 19:57 | 60.25839 | 27.10395 | 23049 ft | 419 kts | 86° |
| 2026-04-23 19:57 | 60.25449 | 27.16239 | 23635 ft | 423 kts | 85° |
| 2026-04-23 19:57 | 60.25054 | 27.22131 | 24161 ft | 426 kts | 85° |
| 2026-04-23 19:58 | 60.24653 | 27.28058 | 24679 ft | 430 kts | 85° |
| 2026-04-23 19:58 | 60.24245 | 27.34051 | 25188 ft | 433 kts | 85° |
| 2026-04-23 19:58 | 60.23832 | 27.40086 | 25683 ft | 437 kts | 85° |
| 2026-04-23 19:58 | 60.23414 | 27.46161 | 26167 ft | 440 kts | 84° |
| 2026-04-23 19:59 | 60.23038 | 27.52270 | 26643 ft | 439 kts | 82° |
| 2026-04-23 19:59 | 60.22807 | 27.58406 | 27105 ft | 439 kts | 79° |
| 2026-04-23 19:59 | 60.22621 | 27.64557 | 27561 ft | 442 kts | 79° |
| 2026-04-23 19:59 | 60.22428 | 27.70754 | 27999 ft | 447 kts | 79° |
| 2026-04-23 20:00 | 60.22216 | 27.77024 | 28443 ft | 451 kts | 79° |
| 2026-04-23 20:00 | 60.21980 | 27.83312 | 29038 ft | 451 kts | 79° |
| 2026-04-23 20:00 | 60.21736 | 27.89638 | 29390 ft | 455 kts | 79° |
| 2026-04-23 20:00 | 60.21490 | 27.95920 | 29769 ft | 458 kts | 79° |
| 2026-04-23 20:01 | 60.21235 | 28.02326 | 30125 ft | 461 kts | 79° |
| 2026-04-23 20:01 | 60.20975 | 28.08790 | 30463 ft | 464 kts | 79° |
| 2026-04-23 20:01 | 60.20710 | 28.15276 | 30743 ft | 467 kts | 80° |
| 2026-04-23 20:02 | 60.20165 | 28.28295 | 30821 ft | 467 kts | 80° |
| 2026-04-23 20:02 | 60.19610 | 28.41305 | 30815 ft | 467 kts | 80° |
| 2026-04-23 20:03 | 60.19045 | 28.54296 | 30810 ft | 464 kts | 80° |
| 2026-04-23 20:03 | 60.18305 | 28.67194 | 30812 ft | 473 kts | 85° |
| 2026-04-23 20:04 | 60.17160 | 28.80223 | 30806 ft | 473 kts | 85° |
| 2026-04-23 20:04 | 60.16016 | 28.93249 | 30815 ft | 473 kts | 85° |
| 2026-04-23 20:05 | 60.15051 | 29.04075 | 30702 ft | 471 kts | 85° |
| 2026-04-23 20:05 | 60.14270 | 29.12696 | 30074 ft | 467 kts | 84° |
| 2026-04-23 20:05 | 60.13687 | 29.19082 | 29500 ft | 463 kts | 84° |
| 2026-04-23 20:05 | 60.13114 | 29.25355 | 28900 ft | 456 kts | 85° |
| 2026-04-23 20:06 | 60.12544 | 29.31589 | 28183 ft | 452 kts | 85° |
| 2026-04-23 20:06 | 60.11980 | 29.37767 | 27491 ft | 447 kts | 86° |
| 2026-04-23 20:06 | 60.11419 | 29.43880 | 26829 ft | 443 kts | 86° |
| 2026-04-23 20:06 | 60.10867 | 29.49860 | 26190 ft | 439 kts | 87° |
| 2026-04-23 20:07 | 60.10311 | 29.55845 | 25557 ft | 435 kts | 87° |
| 2026-04-23 20:07 | 60.09757 | 29.61775 | 24973 ft | 431 kts | 88° |
| 2026-04-23 20:07 | 60.09204 | 29.67669 | 24347 ft | 428 kts | 89° |
| 2026-04-23 20:07 | 60.08653 | 29.73502 | 23764 ft | 424 kts | 89° |
| 2026-04-23 20:08 | 60.08103 | 29.79297 | 23152 ft | 420 kts | 89° |
| 2026-04-23 20:08 | 60.07556 | 29.85011 | 22505 ft | 416 kts | 90° |
| 2026-04-23 20:08 | 60.07012 | 29.90663 | 21952 ft | 411 kts | 90° |
| 2026-04-23 20:08 | 60.06473 | 29.96248 | 21338 ft | 406 kts | 91° |
| 2026-04-23 20:09 | 60.06111 | 29.99979 | 20931 ft | 403 kts | 91° |
| 2026-04-23 20:09 | 60.05269 | 30.07214 | 20133 ft | 405 kts | 98° |
| 2026-04-23 20:09 | 60.04410 | 30.12562 | 19570 ft | 400 kts | 99° |
| 2026-04-23 20:09 | 60.03852 | 30.16063 | 19197 ft | 398 kts | 99° |
| 2026-04-23 20:10 | 60.03017 | 30.21311 | 18644 ft | 393 kts | 99° |
| 2026-04-23 20:10 | 60.01912 | 30.28246 | 17885 ft | 388 kts | 100° |
| 2026-04-23 20:10 | 60.01371 | 30.31630 | 17486 ft | 385 kts | 100° |
| 2026-04-23 20:10 | 60.00556 | 30.36711 | 16898 ft | 381 kts | 100° |
| 2026-04-23 20:11 | 59.99489 | 30.43336 | 16140 ft | 375 kts | 101° |
| 2026-04-23 20:11 | 59.98948 | 30.46684 | 15755 ft | 372 kts | 101° |
| 2026-04-23 20:11 | 59.98157 | 30.51574 | 15240 ft | 368 kts | 101° |
| 2026-04-23 20:11 | 59.97372 | 30.56404 | 14768 ft | 362 kts | 101° |
| 2026-04-23 20:12 | 59.96597 | 30.61163 | 14228 ft | 359 kts | 102° |
| 2026-04-23 20:12 | 59.95828 | 30.65874 | 13718 ft | 355 kts | 102° |
| 2026-04-23 20:12 | 59.95076 | 30.70473 | 13148 ft | 351 kts | 102° |
| 2026-04-23 20:12 | 59.94312 | 30.75078 | 12554 ft | 348 kts | 104° |
| 2026-04-23 20:13 | 59.93320 | 30.79474 | 11720 ft | 348 kts | 114° |
| 2026-04-23 20:13 | 59.91996 | 30.83498 | 10899 ft | 347 kts | 122° |
| 2026-04-23 20:13 | 59.90562 | 30.87336 | 10138 ft | 343 kts | 122° |
| 2026-04-23 20:13 | 59.89173 | 30.91075 | 9784 ft | 326 kts | 122° |
| 2026-04-23 20:14 | 59.87867 | 30.94593 | 9580 ft | 306 kts | 121° |
| 2026-04-23 20:14 | 59.86628 | 30.97912 | 9176 ft | 294 kts | 124° |
| 2026-04-23 20:14 | 59.85120 | 31.00671 | 8577 ft | 296 kts | 144° |
| 2026-04-23 20:14 | 59.83244 | 31.02363 | 7985 ft | 296 kts | 158° |
| 2026-04-23 20:15 | 59.81226 | 31.03779 | 7393 ft | 292 kts | 158° |
| 2026-04-23 20:15 | 59.79412 | 31.05060 | 6866 ft | 288 kts | 158° |
| 2026-04-23 20:15 | 59.77531 | 31.06395 | 6314 ft | 286 kts | 159° |
| 2026-04-23 20:15 | 59.75601 | 31.07278 | 5718 ft | 285 kts | 174° |
| 2026-04-23 20:16 | 59.73638 | 31.07164 | 5139 ft | 282 kts | 187° |
| 2026-04-23 20:16 | 59.71702 | 31.06736 | 4587 ft | 279 kts | 186° |
| 2026-04-23 20:16 | 59.69771 | 31.06327 | 4116 ft | 279 kts | 186° |
| 2026-04-23 20:16 | 59.67909 | 31.05623 | 3978 ft | 266 kts | 199° |
| 2026-04-23 20:17 | 59.66288 | 31.04226 | 3874 ft | 253 kts | 211° |
| 2026-04-23 20:17 | 59.64772 | 31.02594 | 3739 ft | 244 kts | 211° |
| 2026-04-23 20:17 | 59.63261 | 31.00995 | 3513 ft | 240 kts | 210° |
| 2026-04-23 20:17 | 59.61796 | 30.99447 | 3476 ft | 244 kts | 212° |
| 2026-04-23 20:18 | 59.60463 | 30.97428 | 3478 ft | 239 kts | 229° |
| 2026-04-23 20:18 | 59.59395 | 30.94926 | 3473 ft | 238 kts | 234° |
| 2026-04-23 20:18 | 59.58399 | 30.92331 | 3471 ft | 234 kts | 248° |
| 2026-04-23 20:18 | 59.58066 | 30.89290 | 3478 ft | 225 kts | 280° |
| 2026-04-23 20:19 | 59.58601 | 30.86506 | 3477 ft | 215 kts | 313° |
| 2026-04-23 20:19 | 59.59790 | 30.84864 | 3478 ft | 210 kts | 344° |
| 2026-04-23 20:19 | 59.61218 | 30.84307 | 3475 ft | 209 kts | 351° |
| 2026-04-23 20:19 | 59.62650 | 30.83787 | 3478 ft | 209 kts | 350° |
| 2026-04-23 20:20 | 59.64078 | 30.83230 | 3479 ft | 209 kts | 349° |
| 2026-04-23 20:20 | 59.65502 | 30.82651 | 3467 ft | 209 kts | 349° |
| 2026-04-23 20:20 | 59.66938 | 30.82060 | 3480 ft | 211 kts | 348° |
| 2026-04-23 20:20 | 59.68375 | 30.81462 | 3481 ft | 211 kts | 348° |
| 2026-04-23 20:21 | 59.69806 | 30.80864 | 3477 ft | 211 kts | 348° |
| 2026-04-23 20:21 | 59.71241 | 30.80265 | 3477 ft | 211 kts | 348° |
| 2026-04-23 20:21 | 59.72680 | 30.79664 | 3478 ft | 211 kts | 348° |
| 2026-04-23 20:21 | 59.74114 | 30.79066 | 3478 ft | 211 kts | 348° |
| 2026-04-23 20:22 | 59.75535 | 30.78474 | 3479 ft | 211 kts | 348° |
| 2026-04-23 20:22 | 59.76954 | 30.77871 | 3449 ft | 205 kts | 345° |
| 2026-04-23 20:22 | 59.78150 | 30.76575 | 3367 ft | 196 kts | 317° |
| 2026-04-23 20:22 | 59.78833 | 30.74302 | 3268 ft | 190 kts | 288° |
| 2026-04-23 20:23 | 59.78846 | 30.71710 | 3150 ft | 188 kts | 259° |
| 2026-04-23 20:23 | 59.78293 | 30.69405 | 2945 ft | 184 kts | 245° |
| 2026-04-23 20:23 | 59.77671 | 30.67165 | 2580 ft | 183 kts | 246° |
| 2026-04-23 20:23 | 59.77059 | 30.64920 | 2495 ft | 188 kts | 246° |
| 2026-04-23 20:24 | 59.76243 | 30.62918 | 2484 ft | 193 kts | 216° |
| 2026-04-23 20:24 | 59.74945 | 30.62210 | 2490 ft | 198 kts | 184° |
| 2026-04-23 20:24 | 59.73565 | 30.62150 | 2483 ft | 198 kts | 182° |
| 2026-04-23 20:24 | 59.72185 | 30.62106 | 2483 ft | 198 kts | 181° |
| 2026-04-23 20:25 | 59.70875 | 30.62684 | 2485 ft | 198 kts | 147° |
| 2026-04-23 20:25 | 59.69853 | 30.64477 | 2483 ft | 197 kts | 132° |
| 2026-04-23 20:25 | 59.68881 | 30.66422 | 2484 ft | 196 kts | 132° |
| 2026-04-23 20:25 | 59.68141 | 30.68577 | 2484 ft | 190 kts | 101° |
| 2026-04-23 20:26 | 59.68210 | 30.71082 | 2484 ft | 180 kts | 60° |
| 2026-04-23 20:26 | 59.68963 | 30.72991 | 2480 ft | 176 kts | 42° |
| 2026-04-23 20:26 | 59.69827 | 30.74700 | 2477 ft | 174 kts | 32° |
| 2026-04-23 20:26 | 59.70943 | 30.75150 | 2484 ft | 169 kts | 343° |
| 2026-04-23 20:27 | 59.71893 | 30.73817 | 2485 ft | 171 kts | 311° |
| 2026-04-23 20:27 | 59.72489 | 30.71762 | 2484 ft | 174 kts | 296° |
| 2026-04-23 20:27 | 59.72898 | 30.69496 | 2483 ft | 175 kts | 291° |
| 2026-04-23 20:27 | 59.73252 | 30.67176 | 2482 ft | 175 kts | 290° |
| 2026-04-23 20:28 | 59.73598 | 30.64859 | 2483 ft | 175 kts | 290° |
| 2026-04-23 20:28 | 59.73943 | 30.62543 | 2483 ft | 175 kts | 290° |
| 2026-04-23 20:28 | 59.74272 | 30.60317 | 2478 ft | 158 kts | 290° |
| 2026-04-23 20:28 | 59.74563 | 30.58350 | 2475 ft | 140 kts | 291° |
| 2026-04-23 20:29 | 59.74831 | 30.56568 | 2492 ft | 136 kts | 291° |
| 2026-04-23 20:29 | 59.75096 | 30.54800 | 2482 ft | 134 kts | 291° |
| 2026-04-23 20:29 | 59.75360 | 30.53022 | 2482 ft | 133 kts | 291° |
| 2026-04-23 20:29 | 59.75624 | 30.51251 | 2483 ft | 134 kts | 291° |
| 2026-04-23 20:30 | 59.75889 | 30.49470 | 2440 ft | 135 kts | 291° |
| 2026-04-23 20:30 | 59.76398 | 30.46033 | 2094 ft | 120 kts | 291° |
| 2026-04-23 20:30 | 59.76642 | 30.44407 | 1935 ft | 123 kts | 291° |
| 2026-04-23 20:31 | 59.76884 | 30.42777 | 1763 ft | 122 kts | 291° |
| 2026-04-23 20:31 | 59.77121 | 30.41184 | 1591 ft | 122 kts | 291° |
| 2026-04-23 20:31 | 59.77360 | 30.39576 | 1420 ft | 121 kts | 290° |
| 2026-04-23 20:31 | 59.77596 | 30.37978 | 1226 ft | 120 kts | 290° |
| 2026-04-23 20:32 | 59.77829 | 30.36367 | 1037 ft | 123 kts | 288° |
| 2026-04-23 20:32 | 59.78059 | 30.34720 | 838 ft | 124 kts | 287° |
| 2026-04-23 20:32 | 59.78304 | 30.33056 | 635 ft | 126 kts | 288° |
| 2026-04-23 20:32 | 59.78573 | 30.31391 | 422 ft | 126 kts | 288° |
| 2026-04-23 20:33 | 59.78825 | 30.29748 | 280 ft | 122 kts | 287° |
| 2026-04-23 20:33 | 59.79057 | 30.28141 | 135 ft | 120 kts | 287° |
| 2026-04-23 20:33 | 59.79279 | 30.26594 | 78 ft | 109 kts | 288° |
| 2026-04-23 20:33 | 59.79475 | 30.25322 | 72 ft | 85 kts | 287° |
| 2026-04-23 20:34 | 59.79629 | 30.24326 | 67 ft | 62 kts | 287° |
| 2026-04-23 20:34 | 59.79731 | 30.23609 | 61 ft | 41 kts | 287° |
| 2026-04-23 20:34 | 59.79800 | 30.23294 | 66 ft | 24 kts | 305° |
| 2026-04-23 20:34 | 59.79891 | 30.23085 | 71 ft | 7 kts | 315° |
| 2026-04-23 20:35 | 59.79944 | 30.23015 | 66 ft | 11 kts | 354° |
| 2026-04-23 20:35 | 59.79978 | 30.23132 | 70 ft | 13 kts | 105° |
| 2026-04-23 20:35 | 59.79950 | 30.23323 | 69 ft | 16 kts | 107° |
| 2026-04-23 20:35 | 59.79915 | 30.23559 | 71 ft | 19 kts | 106° |
| 2026-04-23 20:36 | 59.79874 | 30.23836 | 70 ft | 22 kts | 106° |
| 2026-04-23 20:36 | 59.79829 | 30.24144 | 70 ft | 25 kts | 106° |
| 2026-04-23 20:36 | 59.79779 | 30.24484 | 71 ft | 27 kts | 107° |
| 2026-04-23 20:36 | 59.79723 | 30.24855 | 68 ft | 29 kts | 106° |
| 2026-04-23 20:37 | 59.79665 | 30.25255 | 71 ft | 31 kts | 106° |
| 2026-04-23 20:37 | 59.79603 | 30.25670 | 74 ft | 28 kts | 107° |
| 2026-04-23 20:37 | 59.79558 | 30.25964 | 76 ft | 0 kts | 106° |
| 2026-04-23 20:37 | 59.79551 | 30.26014 | 71 ft | 9 kts | 107° |
| 2026-04-23 20:38 | 59.79525 | 30.26184 | 70 ft | 16 kts | 107° |
| 2026-04-23 20:38 | 59.79557 | 30.26323 | 69 ft | 13 kts | 15° |
| 2026-04-23 20:38 | 59.79653 | 30.26384 | 72 ft | 16 kts | 37° |
| 2026-04-23 20:38 | 59.79730 | 30.26479 | 76 ft | 14 kts | 18° |
| 2026-04-23 20:39 | 59.79821 | 30.26533 | 72 ft | 9 kts | 20° |
| 2026-04-23 20:39 | 59.79826 | 30.26635 | 71 ft | 8 kts | 110° |
| 2026-04-23 20:39 | 59.79821 | 30.26662 | 71 ft | 0 kts | 105° |